Time;durP1;ratioP1;P1;durP2;ratioP2;P2;SDS_P1;SDS_P2;PMS_P1;PMS_P2;Temp;Humidity;BMP_temperature;BMP_pressure;BME280_temperature;BME280_humidity;BME280_pressure;Samples;Min_cycle;Max_cycle;Signal;HPM_P1;HPM_P2
2022/07/13 00:01:52;;;;;;;7.15;4.32;;;22.60;99.20;;;;;;4936024;29;20042;-68
2022/07/13 00:04:17;;;;;;;6.65;3.72;;;22.30;99.10;;;;;;4935774;29;20059;-68
2022/07/13 00:06:43;;;;;;;6.10;4.03;;;22.70;99.10;;;;;;4918847;29;20055;-68
2022/07/13 00:09:08;;;;;;;10.68;4.32;;;22.50;98.60;;;;;;4935788;29;20159;-68
2022/07/13 00:11:34;;;;;;;5.50;3.95;;;22.40;98.30;;;;;;4935533;29;20607;-68
2022/07/13 00:13:59;;;;;;;5.65;3.60;;;22.30;98.40;;;;;;4918932;29;20056;-68
2022/07/13 00:16:25;;;;;;;5.70;3.75;;;22.30;98.40;;;;;;4918974;29;20114;-68
2022/07/13 00:18:50;;;;;;;5.38;3.95;;;22.30;98.30;;;;;;4935855;29;20040;-68
2022/07/13 00:21:16;;;;;;;5.53;3.78;;;22.70;98.50;;;;;;4935606;29;20036;-68
2022/07/13 00:23:42;;;;;;;5.82;3.67;;;22.30;98.50;;;;;;4935882;29;20388;-68
2022/07/13 00:26:09;;;;;;;6.63;4.05;;;22.20;99.20;;;;;;4935185;29;20401;-68
2022/07/13 00:28:34;;;;;;;8.43;4.40;;;22.50;98.90;;;;;;4935837;29;20032;-68
2022/07/13 00:31:00;;;;;;;6.85;3.80;;;22.20;99.10;;;;;;4935400;29;20370;-68
2022/07/13 00:33:25;;;;;;;8.90;4.25;;;22.20;99.10;;;;;;4935470;29;20551;-67
2022/07/13 00:35:51;;;;;;;5.88;3.88;;;22.20;99.30;;;;;;4935561;29;20054;-67
2022/07/13 00:38:16;;;;;;;4.00;3.60;;;22.20;99.50;;;;;;4935488;29;20499;-67
2022/07/13 00:40:42;;;;;;;5.20;4.00;;;22.20;99.20;;;;;;4935428;29;20038;-66
2022/07/13 00:43:07;;;;;;;4.78;4.03;;;22.10;99.70;;;;;;4918417;29;20035;-66
2022/07/13 00:45:33;;;;;;;7.22;4.13;;;22.10;99.80;;;;;;4918938;29;20028;-66
2022/07/13 00:47:59;;;;;;;5.97;4.50;;;22.50;99.90;;;;;;4935274;29;20027;-66
2022/07/13 00:50:24;;;;;;;4.38;3.85;;;22.10;99.90;;;;;;4918683;29;20070;-66
2022/07/13 00:52:50;;;;;;;6.75;4.30;;;22.00;99.90;;;;;;4934629;29;20059;-66
2022/07/13 00:55:15;;;;;;;6.50;3.80;;;22.00;99.90;;;;;;4935077;29;20034;-67
2022/07/13 00:57:41;;;;;;;4.40;3.97;;;22.00;99.90;;;;;;4935133;29;20038;-68
2022/07/13 01:00:09;;;;;;;7.72;4.10;;;22.00;99.80;;;;;;4935287;29;20028;-67
2022/07/13 01:02:42;;;;;;;5.60;3.85;;;22.10;99.90;;;;;;4935034;29;20027;-68
2022/07/13 01:05:11;;;;;;;4.78;3.97;;;22.00;99.90;;;;;;4934126;29;20374;-66
2022/07/13 01:07:37;;;;;;;5.70;4.18;;;22.10;99.90;;;;;;4918024;29;20032;-66
2022/07/13 01:10:07;;;;;;;5.55;4.35;;;22.00;99.80;;;;;;4918410;29;20028;-66
2022/07/13 01:12:33;;;;;;;6.28;3.80;;;22.00;99.90;;;;;;4935433;29;20035;-66
2022/07/13 01:14:59;;;;;;;10.25;4.40;;;21.90;99.90;;;;;;4935240;29;20107;-66
2022/07/13 01:17:28;;;;;;;5.70;4.07;;;21.90;99.90;;;;;;4918381;29;20443;-66
2022/07/13 01:19:53;;;;;;;5.93;4.10;;;22.00;99.90;;;;;;4917952;29;20028;-66
2022/07/13 01:22:24;;;;;;;5.75;4.07;;;22.00;99.90;;;;;;4935021;29;20448;-67
2022/07/13 01:24:50;;;;;;;5.97;3.70;;;22.00;99.90;;;;;;4918229;29;20095;-66
2022/07/13 01:27:15;;;;;;;6.18;3.92;;;22.00;99.90;;;;;;4902233;29;20432;-66
2022/07/13 01:29:41;;;;;;;7.57;4.07;;;22.50;99.90;;;;;;4917860;29;20046;-66
2022/07/13 01:32:07;;;;;;;4.57;3.38;;;22.00;99.90;;;;;;4935144;29;20028;-66
2022/07/13 01:34:32;;;;;;;4.72;3.45;;;22.20;99.90;;;;;;4918534;29;20028;-66
2022/07/13 01:36:58;;;;;;;4.07;3.45;;;22.00;99.90;;;;;;4935086;29;20031;-66
2022/07/13 01:39:24;;;;;;;12.20;4.22;;;22.80;99.90;;;;;;4917728;29;20391;-66
2022/07/13 01:41:49;;;;;;;9.43;3.53;;;21.70;99.90;;;;;;4902368;29;20051;-66
2022/07/13 01:44:15;;;;;;;6.22;3.20;;;21.70;99.90;;;;;;4934973;29;20123;-66
2022/07/13 01:46:41;;;;;;;5.93;3.17;;;21.70;99.90;;;;;;4935151;29;20023;-66
2022/07/13 01:49:06;;;;;;;4.72;3.00;;;21.70;99.90;;;;;;4917872;29;20020;-66
2022/07/13 01:51:31;;;;;;;8.23;3.85;;;22.50;99.90;;;;;;4934841;29;20024;-66
2022/07/13 01:53:57;;;;;;;4.20;3.13;;;21.80;99.80;;;;;;4918020;29;20038;-66
2022/07/13 01:56:23;;;;;;;3.50;3.17;;;21.80;99.80;;;;;;4934580;29;20034;-65
2022/07/13 01:58:48;;;;;;;4.85;3.33;;;22.10;99.20;;;;;;4917736;29;20034;-66
2022/07/13 02:01:14;;;;;;;8.35;3.92;;;21.90;99.00;;;;;;4934331;29;20023;-66
2022/07/13 02:03:39;;;;;;;5.50;3.22;;;21.90;98.80;;;;;;4918996;29;20032;-66
2022/07/13 02:06:05;;;;;;;3.70;3.00;;;21.90;98.40;;;;;;4938167;29;20083;-66
2022/07/13 02:08:31;;;;;;;6.25;3.50;;;22.00;98.30;;;;;;4938043;29;20062;-67
2022/07/13 02:10:56;;;;;;;6.00;2.88;;;22.00;98.30;;;;;;4938158;29;20139;-67
2022/07/13 02:13:22;;;;;;;4.20;3.17;;;22.10;98.00;;;;;;4904906;29;20083;-67
2022/07/13 02:15:47;;;;;;;6.68;3.33;;;22.00;98.00;;;;;;4937984;29;20524;-67
2022/07/13 02:18:13;;;;;;;3.80;3.45;;;22.00;98.00;;;;;;4937699;29;20034;-67
2022/07/13 02:20:38;;;;;;;4.75;3.30;;;22.10;97.90;;;;;;4937784;29;20472;-67
2022/07/13 02:23:04;;;;;;;2.95;2.60;;;23.00;98.00;;;;;;4920552;29;20024;-67
2022/07/13 02:25:31;;;;;;;3.47;2.83;;;22.00;97.70;;;;;;4920795;29;20131;-67
2022/07/13 02:27:57;;;;;;;5.10;2.88;;;22.40;97.50;;;;;;4920600;29;20519;-67
2022/07/13 02:30:22;;;;;;;5.35;3.33;;;22.00;97.70;;;;;;4937767;29;20067;-66
2022/07/13 02:32:48;;;;;;;3.13;2.83;;;22.00;97.70;;;;;;4937365;29;20030;-66
2022/07/13 02:35:13;;;;;;;6.13;3.05;;;22.80;97.70;;;;;;4937731;29;20075;-67
2022/07/13 02:37:39;;;;;;;4.93;2.85;;;22.20;97.60;;;;;;4937379;29;20083;-67
2022/07/13 02:40:05;;;;;;;3.97;2.85;;;22.90;97.90;;;;;;4937824;29;20075;-67
2022/07/13 02:42:31;;;;;;;6.93;2.97;;;22.00;97.60;;;;;;4937160;29;20122;-68
2022/07/13 02:44:57;;;;;;;3.40;2.83;;;22.00;97.60;;;;;;4937686;29;20110;-68
2022/07/13 02:47:23;;;;;;;8.40;2.72;;;22.00;97.60;;;;;;4937531;29;20530;-67
2022/07/13 02:49:49;;;;;;;4.40;2.67;;;22.00;97.50;;;;;;4937597;29;20031;-67
2022/07/13 02:52:14;;;;;;;3.60;2.35;;;23.00;97.70;;;;;;4936914;29;20115;-67
2022/07/13 02:54:40;;;;;;;3.80;2.47;;;22.10;97.50;;;;;;4937389;29;20046;-67
2022/07/13 02:57:05;;;;;;;5.38;2.85;;;21.90;97.50;;;;;;4937117;29;20063;-67
2022/07/13 02:59:33;;;;;;;3.08;2.78;;;22.20;97.60;;;;;;4937052;29;20039;-66
2022/07/13 03:01:58;;;;;;;3.40;2.53;;;23.10;97.90;;;;;;4937283;29;20075;-66
2022/07/13 03:04:24;;;;;;;3.45;2.42;;;22.00;97.70;;;;;;4936617;29;20036;-66
2022/07/13 03:06:49;;;;;;;4.00;2.85;;;21.90;97.60;;;;;;4937233;29;20027;-67
2022/07/13 03:09:15;;;;;;;3.08;2.78;;;22.60;97.90;;;;;;4937025;29;20125;-66
2022/07/13 03:11:40;;;;;;;6.47;2.60;;;21.90;97.80;;;;;;4937070;29;20551;-66
2022/07/13 03:14:06;;;;;;;3.40;2.78;;;22.60;98.10;;;;;;4936569;29;20148;-66
2022/07/13 03:16:32;;;;;;;4.22;3.05;;;22.10;98.10;;;;;;4935779;29;20082;-65
2022/07/13 03:18:58;;;;;;;2.60;2.33;;;21.80;97.90;;;;;;4936937;29;20103;-66
2022/07/13 03:21:23;;;;;;;3.33;2.80;;;22.80;98.20;;;;;;4936649;29;20504;-65
2022/07/13 03:23:49;;;;;;;4.85;2.55;;;21.90;98.00;;;;;;4936838;29;20517;-65
2022/07/13 03:26:14;;;;;;;4.90;2.75;;;22.40;98.00;;;;;;4936132;29;20062;-66
2022/07/13 03:28:40;;;;;;;4.15;2.55;;;21.80;97.90;;;;;;4936876;29;20028;-67
2022/07/13 03:31:05;;;;;;;3.40;2.33;;;21.80;98.00;;;;;;4936413;29;20027;-67
2022/07/13 03:33:31;;;;;;;6.18;3.13;;;21.80;98.00;;;;;;4936873;29;20392;-66
2022/07/13 03:35:56;;;;;;;4.43;3.13;;;22.40;98.10;;;;;;4936107;29;20028;-67
2022/07/13 03:38:22;;;;;;;4.50;2.70;;;21.80;98.10;;;;;;4936470;29;20028;-65
2022/07/13 03:40:47;;;;;;;4.07;2.90;;;22.90;98.30;;;;;;4936369;29;20027;-66
2022/07/13 03:43:13;;;;;;;4.07;2.60;;;22.30;98.20;;;;;;4936466;29;20086;-66
2022/07/13 03:45:38;;;;;;;5.47;2.97;;;21.80;98.20;;;;;;4936225;29;20493;-66
2022/07/13 03:48:05;;;;;;;3.55;2.50;;;22.10;98.20;;;;;;4936409;29;20464;-67
2022/07/13 03:50:31;;;;;;;4.55;2.72;;;21.80;98.10;;;;;;4936360;29;20052;-67
2022/07/13 03:52:56;;;;;;;3.47;2.70;;;21.80;98.20;;;;;;4936548;29;20114;-67
2022/07/13 03:55:22;;;;;;;4.72;2.78;;;21.70;98.50;;;;;;4936476;29;20608;-68
2022/07/13 03:57:47;;;;;;;5.38;2.70;;;21.70;98.30;;;;;;4935892;29;20465;-67
2022/07/13 04:00:13;;;;;;;5.25;3.30;;;21.70;98.30;;;;;;4936168;29;20593;-68
2022/07/13 04:02:38;;;;;;;5.63;3.15;;;21.70;98.40;;;;;;4935607;29;20038;-67
2022/07/13 04:05:05;;;;;;;3.45;2.78;;;21.80;98.30;;;;;;4935372;29;20032;-68
2022/07/13 04:07:30;;;;;;;4.20;2.83;;;21.80;98.40;;;;;;4935813;29;20051;-73
2022/07/13 04:10:23;;;;;;;4.93;2.50;;;21.80;98.20;;;;;;4918320;29;20551;-66
2022/07/13 04:12:49;;;;;;;3.88;3.00;;;21.80;98.20;;;;;;4926495;29;20055;-73
2022/07/13 04:15:14;;;;;;;5.00;3.67;;;21.80;98.20;;;;;;4937794;29;20028;-69
2022/07/13 04:17:40;;;;;;;4.25;2.75;;;21.80;98.40;;;;;;4944537;29;20079;-68
2022/07/13 04:20:06;;;;;;;3.22;2.70;;;21.90;98.30;;;;;;4935390;29;20483;-69
2022/07/13 04:22:32;;;;;;;3.83;2.80;;;21.90;98.10;;;;;;4935897;29;20024;-68
2022/07/13 04:24:58;;;;;;;6.80;2.95;;;22.50;98.40;;;;;;4935792;29;20412;-68
2022/07/13 04:27:23;;;;;;;3.65;3.10;;;21.80;98.30;;;;;;4935275;29;20459;-68
2022/07/13 04:29:49;;;;;;;2.90;2.60;;;21.90;98.40;;;;;;4935298;29;20374;-67
2022/07/13 04:32:14;;;;;;;4.30;2.80;;;22.30;98.50;;;;;;4935049;29;20027;-68
2022/07/13 04:34:40;;;;;;;2.85;2.55;;;21.90;98.40;;;;;;4935643;29;20055;-67
2022/07/13 04:37:05;;;;;;;5.25;3.00;;;22.20;98.60;;;;;;4935479;29;20031;-67
2022/07/13 04:39:31;;;;;;;10.10;2.20;;;21.70;98.70;;;;;;4935132;29;20035;-67
2022/07/13 04:41:57;;;;;;;6.32;2.70;;;22.10;98.80;;;;;;4935514;29;20046;-67
2022/07/13 04:44:23;;;;;;;3.70;2.45;;;22.10;99.10;;;;;;4935440;29;20078;-67
2022/07/13 04:46:48;;;;;;;2.90;2.60;;;21.80;98.80;;;;;;4935743;29;20388;-67
2022/07/13 04:49:15;;;;;;;5.07;4.07;;;21.80;98.90;;;;;;4935219;29;20024;-68
2022/07/13 04:51:40;;;;;;;4.20;3.67;;;21.70;98.90;;;;;;4935015;29;20051;-68
2022/07/13 04:54:06;;;;;;;6.72;4.00;;;21.80;98.50;;;;;;4935547;29;20496;-68
2022/07/13 04:56:32;;;;;;;5.90;4.57;;;21.90;98.30;;;;;;4935479;29;20127;-67
2022/07/13 04:58:57;;;;;;;5.05;3.90;;;22.30;98.60;;;;;;4934492;29;20031;-65
2022/07/13 05:01:23;;;;;;;6.10;3.83;;;21.90;98.20;;;;;;4934310;29;20032;-64
2022/07/13 05:03:48;;;;;;;4.35;3.28;;;22.00;98.30;;;;;;4934034;29;20186;-64
2022/07/13 05:06:14;;;;;;;5.10;2.95;;;21.90;98.40;;;;;;4935504;29;20027;-65
2022/07/13 05:08:40;;;;;;;2.92;2.72;;;21.90;98.80;;;;;;4935336;29;20042;-65
2022/07/13 05:11:05;;;;;;;4.85;2.72;;;21.80;98.80;;;;;;4935323;29;20024;-65
2022/07/13 05:13:31;;;;;;;8.48;3.00;;;21.80;98.80;;;;;;4934777;29;20173;-66
2022/07/13 05:15:57;;;;;;;8.82;4.30;;;21.90;98.50;;;;;;4935218;29;20087;-65
2022/07/13 05:18:22;;;;;;;5.63;3.67;;;21.90;98.60;;;;;;4934371;29;20504;-65
2022/07/13 05:20:48;;;;;;;6.20;4.35;;;22.00;98.30;;;;;;4934521;29;20114;-64
2022/07/13 05:23:13;;;;;;;3.88;3.28;;;22.00;98.10;;;;;;4934353;29;20067;-65
2022/07/13 05:25:39;;;;;;;11.05;4.63;;;22.20;97.90;;;;;;4934030;29;20127;-65
2022/07/13 05:28:04;;;;;;;6.35;3.38;;;22.20;98.10;;;;;;4934110;29;20020;-65
2022/07/13 05:30:30;;;;;;;5.97;3.85;;;22.20;97.80;;;;;;4934765;29;20032;-65
2022/07/13 05:32:55;;;;;;;5.55;3.25;;;22.30;97.70;;;;;;4934000;29;20031;-65
2022/07/13 05:35:21;;;;;;;6.95;4.53;;;22.30;97.60;;;;;;4917766;29;20468;-65
2022/07/13 05:37:47;;;;;;;7.72;4.45;;;22.30;97.60;;;;;;4935189;29;20040;-65
2022/07/13 05:40:13;;;;;;;6.38;3.25;;;22.40;97.50;;;;;;4927366;29;20040;-65
2022/07/13 05:42:39;;;;;;;5.05;3.88;;;22.50;97.40;;;;;;4919792;29;20020;-66
2022/07/13 05:45:04;;;;;;;5.85;3.88;;;22.70;97.40;;;;;;4933374;29;20032;-65
2022/07/13 05:47:30;;;;;;;8.68;4.95;;;22.70;97.00;;;;;;4937978;29;20507;-66
2022/07/13 05:49:55;;;;;;;4.45;3.15;;;22.60;97.20;;;;;;4938329;29;20440;-77
2022/07/13 05:52:21;;;;;;;3.80;2.88;;;22.70;96.90;;;;;;4938536;29;20051;-65
2022/07/13 05:54:49;;;;;;;5.45;3.30;;;22.70;96.90;;;;;;4938429;29;20032;-65
2022/07/13 05:57:15;;;;;;;3.97;3.03;;;23.10;96.60;;;;;;4938410;29;20031;-66
2022/07/13 05:59:40;;;;;;;4.38;2.97;;;22.90;96.60;;;;;;4920661;29;20034;-65
2022/07/13 06:02:06;;;;;;;5.38;3.30;;;23.40;96.30;;;;;;4938602;29;20039;-65
2022/07/13 06:04:31;;;;;;;12.60;5.22;;;23.10;96.30;;;;;;4936756;29;20247;-65
2022/07/13 06:06:57;;;;;;;9.05;4.75;;;23.00;96.70;;;;;;4938115;29;20055;-65
2022/07/13 06:09:23;;;;;;;7.97;4.25;;;23.20;96.30;;;;;;4938344;29;20115;-65
2022/07/13 06:11:48;;;;;;;6.15;3.92;;;24.00;96.40;;;;;;4938466;29;20048;-65
2022/07/13 06:14:14;;;;;;;4.28;3.50;;;23.30;96.20;;;;;;4937491;29;20027;-65
2022/07/13 06:16:39;;;;;;;6.90;2.85;;;23.60;95.80;;;;;;4937578;29;20019;-65
2022/07/13 06:19:05;;;;;;;10.43;2.88;;;23.60;95.50;;;;;;4938110;29;20040;-65
2022/07/13 06:21:30;;;;;;;5.78;3.30;;;24.00;95.60;;;;;;4937802;29;20024;-65
2022/07/13 06:23:56;;;;;;;6.85;3.92;;;24.00;95.60;;;;;;4926120;29;20032;-65
2022/07/13 06:26:21;;;;;;;18.10;4.93;;;24.00;95.00;;;;;;4918898;29;20408;-65
2022/07/13 06:28:47;;;;;;;7.15;4.10;;;23.90;94.90;;;;;;4936604;29;20028;-66
2022/07/13 06:31:13;;;;;;;10.93;4.43;;;23.80;95.00;;;;;;4937812;29;20106;-65
2022/07/13 06:33:38;;;;;;;9.25;3.47;;;24.00;95.10;;;;;;4937034;29;20027;-66
2022/07/13 06:36:04;;;;;;;7.88;4.15;;;24.20;94.50;;;;;;4937274;29;20034;-65
2022/07/13 06:39:49;;;;;;;16.67;3.92;;;24.40;93.90;;;;;;4936486;29;20077;-65
2022/07/13 06:41:55;;;;;;;5.72;3.80;;;24.30;94.10;;;;;;4927420;29;20042;-69
2022/07/13 06:44:21;;;;;;;7.05;3.55;;;24.50;93.90;;;;;;4937692;29;20035;-69
2022/07/13 06:46:46;;;;;;;14.35;5.63;;;24.60;93.80;;;;;;4937867;29;20440;-69
2022/07/13 06:49:12;;;;;;;12.93;5.07;;;24.90;94.70;;;;;;4937559;29;20027;-69
2022/07/13 06:51:38;;;;;;;7.28;3.95;;;24.30;94.80;;;;;;4937690;29;20051;-68
2022/07/13 06:54:03;;;;;;;10.20;4.70;;;24.40;94.10;;;;;;4937709;29;20031;-69
2022/07/13 06:56:29;;;;;;;9.90;4.85;;;25.70;93.40;;;;;;4937490;29;20389;-69
2022/07/13 06:58:54;;;;;;;17.75;6.22;;;24.80;92.70;;;;;;4937611;29;20024;-69
2022/07/13 07:01:20;;;;;;;6.53;4.43;;;24.80;92.80;;;;;;4937401;29;20024;-69
2022/07/13 07:03:46;;;;;;;13.68;6.15;;;24.90;92.50;;;;;;4937454;29;20046;-70
2022/07/13 07:06:12;;;;;;;9.27;5.97;;;25.10;92.80;;;;;;4937267;29;20484;-69
2022/07/13 07:08:37;;;;;;;12.02;5.28;;;25.50;91.50;;;;;;4937332;29;20036;-66
2022/07/13 07:11:03;;;;;;;5.90;4.20;;;25.30;91.40;;;;;;4937357;29;20027;-65
2022/07/13 07:13:28;;;;;;;9.60;3.92;;;25.20;90.70;;;;;;4937130;29;20448;-65
2022/07/13 07:15:54;;;;;;;5.30;3.60;;;25.50;90.30;;;;;;4937317;29;20115;-66
2022/07/13 07:18:22;;;;;;;8.40;4.28;;;25.90;89.40;;;;;;4937165;29;20035;-65
2022/07/13 07:20:48;;;;;;;8.60;3.50;;;26.10;90.80;;;;;;4937229;29;20035;-66
2022/07/13 07:23:14;;;;;;;6.65;3.03;;;25.70;89.90;;;;;;4936855;29;20531;-70
2022/07/13 07:25:40;;;;;;;4.57;2.83;;;26.60;90.50;;;;;;4936874;29;20059;-69
2022/07/13 07:28:06;;;;;;;7.97;3.17;;;25.50;90.00;;;;;;4937110;29;20074;-70
2022/07/13 07:30:32;;;;;;;8.85;3.30;;;25.80;90.30;;;;;;4936905;29;20090;-69
2022/07/13 07:32:57;;;;;;;6.00;2.90;;;26.50;85.40;;;;;;4936996;29;20020;-69
2022/07/13 07:35:23;;;;;;;5.28;3.30;;;27.50;86.20;;;;;;4936817;29;20103;-69
2022/07/13 07:37:48;;;;;;;4.82;3.40;;;26.30;87.10;;;;;;4936834;29;20024;-69
2022/07/13 07:40:14;;;;;;;6.65;3.25;;;26.20;86.10;;;;;;4936763;29;20488;-69
2022/07/13 07:42:39;;;;;;;13.82;4.38;;;26.70;84.60;;;;;;4936683;29;20519;-70
2022/07/13 07:45:06;;;;;;;5.38;2.92;;;27.80;84.80;;;;;;4936705;29;20107;-70
2022/07/13 07:47:32;;;;;;;4.78;3.08;;;26.80;83.90;;;;;;4936601;29;20031;-70
2022/07/13 07:49:57;;;;;;;4.03;3.05;;;28.00;81.50;;;;;;4936673;29;20024;-70
2022/07/13 07:52:28;;;;;;;7.35;2.80;;;27.10;83.90;;;;;;4935864;29;20169;-67
2022/07/13 07:54:54;;;;;;;4.60;2.78;;;26.40;83.60;;;;;;4936024;29;20043;-66
2022/07/13 07:57:19;;;;;;;5.28;2.72;;;27.00;84.00;;;;;;4936441;29;20079;-67
2022/07/13 07:59:45;;;;;;;3.30;2.47;;;28.10;77.00;;;;;;4936307;29;20030;-66
2022/07/13 08:02:11;;;;;;;7.07;3.58;;;28.00;76.70;;;;;;4935919;29;20023;-66
2022/07/13 08:04:36;;;;;;;6.97;3.28;;;28.30;74.40;;;;;;4936195;29;20042;-67
2022/07/13 08:07:02;;;;;;;8.75;2.95;;;28.10;75.60;;;;;;4936385;29;20027;-66
2022/07/13 08:09:27;;;;;;;10.55;3.20;;;28.90;73.70;;;;;;4936226;29;20482;-67
2022/07/13 08:11:53;;;;;;;11.82;3.80;;;28.90;72.10;;;;;;4936129;29;20019;-66
2022/07/13 08:14:19;;;;;;;4.78;2.58;;;30.10;70.10;;;;;;4936075;29;20118;-67
2022/07/13 08:16:54;;;;;;;9.25;2.90;;;30.50;64.50;;;;;;4934200;29;20024;-67
2022/07/13 08:19:19;;;;;;;7.28;3.40;;;29.30;64.40;;;;;;4900379;29;20028;-66
2022/07/13 08:21:45;;;;;;;5.63;2.60;;;29.30;68.40;;;;;;4917204;29;20036;-66
2022/07/13 08:24:11;;;;;;;10.82;4.10;;;29.20;66.00;;;;;;4917158;29;20024;-66
2022/07/13 08:26:36;;;;;;;5.18;2.53;;;29.80;65.30;;;;;;4928444;29;20066;-66
2022/07/13 08:29:02;;;;;;;3.42;2.50;;;30.40;59.40;;;;;;4935470;29;20020;-67
2022/07/13 08:31:27;;;;;;;5.10;2.42;;;30.70;57.10;;;;;;4935765;29;20082;-66
2022/07/13 08:39:22;;;;;;;8.43;2.67;;;29.90;56.70;;;;;;4917131;29;20512;-65
2022/07/13 08:41:47;;;;;;;5.88;2.20;;;29.30;57.40;;;;;;4916899;29;20032;-65
2022/07/13 08:44:13;;;;;;;3.38;2.65;;;29.10;57.00;;;;;;4916810;29;20059;-66
2022/07/13 08:46:39;;;;;;;4.68;2.50;;;29.60;56.80;;;;;;4916632;29;20055;-66
2022/07/13 08:49:04;;;;;;;4.95;3.10;;;29.80;57.70;;;;;;4916641;29;20389;-66
2022/07/13 08:51:34;;;;;;;5.03;2.63;;;29.20;56.70;;;;;;4916589;29;20063;-65
2022/07/13 08:54:00;;;;;;;10.70;2.67;;;29.40;56.50;;;;;;4916699;29;20084;-76
2022/07/13 08:56:26;;;;;;;5.63;2.75;;;29.40;56.40;;;;;;4905676;29;20025;-74
2022/07/13 08:58:54;;;;;;;4.28;3.30;;;29.90;55.90;;;;;;4933943;29;20019;-72
2022/07/13 09:01:19;;;;;;;8.57;3.35;;;31.50;53.50;;;;;;4927580;29;20469;-72
2022/07/13 09:03:45;;;;;;;11.35;3.10;;;31.30;53.50;;;;;;4934676;29;20038;-73
2022/07/13 09:06:30;;;;;;;5.88;2.90;;;31.20;54.70;;;;;;4917621;29;20098;-74
2022/07/13 09:08:56;;;;;;;6.32;3.50;;;31.30;54.90;;;;;;4919720;29;20032;-74
2022/07/13 09:11:23;;;;;;;11.10;3.42;;;31.30;55.30;;;;;;4934533;29;20020;-73
2022/07/13 09:13:49;;;;;;;7.20;3.30;;;31.70;54.20;;;;;;4936014;29;20032;-73
2022/07/13 09:16:35;;;;;;;3.53;2.40;;;31.60;53.30;;;;;;4933082;29;20283;-73
2022/07/13 09:19:00;;;;;;;6.07;2.78;;;31.00;52.60;;;;;;4916158;29;20028;-73
2022/07/13 09:21:27;;;;;;;7.18;2.80;;;31.40;52.30;;;;;;4916704;29;20480;-73
2022/07/13 09:23:56;;;;;;;6.93;2.80;;;30.70;52.80;;;;;;4934039;29;20476;-73
2022/07/13 09:26:40;;;;;;;4.97;2.60;;;30.20;53.80;;;;;;4936391;29;20047;-73
2022/07/13 09:29:06;;;;;;;6.07;3.80;;;29.90;55.40;;;;;;4937401;29;20396;-73
2022/07/13 09:31:47;;;;;;;8.25;3.50;;;30.60;56.10;;;;;;4934559;29;20028;-73
2022/07/13 09:34:14;;;;;;;7.43;3.15;;;30.80;55.00;;;;;;4921575;29;20476;-72
2022/07/13 09:36:40;;;;;;;4.25;3.05;;;32.40;56.00;;;;;;4928703;29;20024;-73
2022/07/13 09:39:09;;;;;;;5.50;2.70;;;31.50;53.30;;;;;;4909530;29;20079;-73
2022/07/13 09:51:44;;;;;;;5.40;2.75;;;30.40;57.40;;;;;;4935284;29;20023;-73
2022/07/13 09:54:09;;;;;;;4.28;3.33;;;29.70;57.10;;;;;;4935968;29;20032;-73
2022/07/13 09:56:35;;;;;;;4.10;2.72;;;30.90;59.50;;;;;;4935487;29;20543;-73
2022/07/13 09:59:04;;;;;;;4.68;2.60;;;30.80;59.60;;;;;;4919962;29;20038;-73
2022/07/13 10:01:30;;;;;;;5.35;3.03;;;30.90;59.00;;;;;;4920469;29;20154;-73
2022/07/13 10:03:55;;;;;;;5.95;2.80;;;29.50;58.10;;;;;;4919994;29;20103;-73
2022/07/13 10:06:21;;;;;;;10.55;3.42;;;29.90;58.70;;;;;;4919373;29;20030;-73
2022/07/13 10:08:46;;;;;;;5.68;2.72;;;30.10;61.90;;;;;;4902242;29;20040;-73
2022/07/13 10:11:12;;;;;;;6.15;2.78;;;30.20;61.50;;;;;;4900862;29;20055;-73
2022/07/13 10:13:38;;;;;;;6.00;2.70;;;29.10;59.90;;;;;;4900534;29;20028;-73
2022/07/13 10:16:03;;;;;;;8.38;3.20;;;29.50;60.00;;;;;;4917883;29;20058;-74
2022/07/13 10:18:31;;;;;;;6.57;2.75;;;29.80;60.60;;;;;;4900541;29;20036;-73
2022/07/13 10:21:16;;;;;;;3.90;2.47;;;30.80;58.60;;;;;;4917332;29;20028;-73
2022/07/13 10:23:41;;;;;;;5.88;2.38;;;30.50;56.70;;;;;;4902505;29;20024;-73
2022/07/13 10:26:24;;;;;;;5.82;2.60;;;31.40;59.00;;;;;;4900197;29;20059;-73
2022/07/13 10:29:10;;;;;;;3.15;2.20;;;30.30;59.50;;;;;;4917298;29;20469;-73
2022/07/13 10:35:02;;;;;;;7.63;2.60;;;29.60;60.50;;;;;;4936121;29;20050;-73
2022/07/13 10:37:28;;;;;;;5.32;2.95;;;29.00;63.20;;;;;;4926909;29;20055;-73
2022/07/13 10:40:12;;;;;;;3.90;2.63;;;29.40;64.60;;;;;;4935438;29;20106;-73
2022/07/13 10:42:53;;;;;;;;;;;28.70;67.70;;;;;;4936839;29;20035;-73
2022/07/13 10:45:43;;;;;;;7.20;2.50;;;29.00;67.70;;;;;;4920960;29;20319;-73
2022/07/13 10:48:21;;;;;;;4.32;2.42;;;28.80;68.30;;;;;;4917783;29;20112;-73
2022/07/13 10:50:47;;;;;;;6.88;2.80;;;28.80;69.30;;;;;;4917286;29;20125;-73
2022/07/13 10:53:16;;;;;;;5.30;2.45;;;29.00;70.10;;;;;;4917327;29;20420;-73
2022/07/13 10:56:25;;;;;;;3.63;2.50;;;29.80;67.20;;;;;;4932392;29;20099;-72
2022/07/13 10:58:50;;;;;;;4.03;2.60;;;29.40;67.70;;;;;;4871781;29;20118;-70
2022/07/13 11:01:33;;;;;;;8.00;3.10;;;29.50;71.40;;;;;;4935188;29;20048;-70
2022/07/13 11:03:58;;;;;;;2.90;2.40;;;29.80;69.30;;;;;;4912902;29;20480;-70
2022/07/13 11:06:24;;;;;;;6.25;3.85;;;30.00;65.90;;;;;;4918468;29;20039;-70
2022/07/13 11:09:22;;;;;;;8.50;3.22;;;30.50;67.40;;;;;;4914643;29;20020;-70
2022/07/13 11:11:51;;;;;;;2.92;2.10;;;30.50;62.90;;;;;;4863965;29;20051;-70
2022/07/13 11:14:35;;;;;;;2.50;2.30;;;31.00;61.50;;;;;;4915141;29;20126;-70
2022/07/13 11:17:16;;;;;;;8.15;2.42;;;31.80;60.90;;;;;;4929504;29;20044;-70
2022/07/13 11:19:56;;;;;;;4.97;2.60;;;31.40;58.20;;;;;;4916142;29;20102;-70
2022/07/13 11:22:22;;;;;;;5.00;2.70;;;30.60;59.40;;;;;;4913454;29;20119;-70
2022/07/13 11:25:14;;;;;;;9.50;2.75;;;30.90;60.20;;;;;;4918795;29;20036;-70
2022/07/13 11:27:48;;;;;;;4.97;2.67;;;30.70;61.00;;;;;;4919551;29;20115;-70
2022/07/13 11:30:14;;;;;;;3.08;2.10;;;31.80;59.40;;;;;;4935732;29;20024;-70
2022/07/13 11:32:39;;;;;;;11.00;2.60;;;31.80;57.50;;;;;;4918952;29;20036;-71
2022/07/13 11:35:05;;;;;;;2.70;2.22;;;33.00;56.40;;;;;;4919100;29;20035;-70
2022/07/13 11:37:31;;;;;;;3.65;2.25;;;32.00;58.60;;;;;;4935142;29;20503;-70
2022/07/13 11:39:57;;;;;;;3.67;2.40;;;32.20;57.50;;;;;;4921442;29;20454;-68
2022/07/13 11:42:23;;;;;;;4.10;2.03;;;31.20;57.70;;;;;;4934801;29;20035;-68
2022/07/13 11:44:52;;;;;;;6.18;1.98;;;30.90;58.60;;;;;;4934845;29;20032;-68
2022/07/13 11:47:18;;;;;;;3.30;1.92;;;31.70;59.40;;;;;;4934534;29;20107;-69
2022/07/13 11:49:47;;;;;;;5.95;2.70;;;31.00;58.60;;;;;;4935035;29;20143;-68
2022/07/13 11:52:19;;;;;;;6.15;2.53;;;30.80;58.50;;;;;;4920621;29;20058;-73
2022/07/13 11:54:57;;;;;;;4.07;2.03;;;30.90;60.00;;;;;;4916648;29;20396;-70
2022/07/13 11:57:23;;;;;;;7.80;2.30;;;30.40;61.10;;;;;;4934064;29;20036;-69
2022/07/13 11:59:48;;;;;;;6.03;2.28;;;30.90;60.20;;;;;;4934896;29;20035;-71
2022/07/13 12:02:14;;;;;;;4.97;2.30;;;31.10;60.00;;;;;;4935088;29;20796;-69
2022/07/13 12:04:43;;;;;;;7.38;2.00;;;31.00;61.30;;;;;;4935014;29;20468;-69
2022/07/13 12:07:12;;;;;;;4.50;2.33;;;31.20;60.40;;;;;;4902649;29;20028;-70
2022/07/13 12:09:55;;;;;;;7.97;3.00;;;32.60;58.20;;;;;;4935058;29;20046;-70
2022/07/13 12:12:22;;;;;;;8.63;2.60;;;32.60;57.60;;;;;;4935111;29;20028;-70
2022/07/13 12:14:47;;;;;;;8.35;2.78;;;33.30;57.70;;;;;;4917953;29;20062;-68
2022/07/13 12:17:13;;;;;;;5.88;2.67;;;32.50;56.90;;;;;;4917654;29;20059;-69
2022/07/13 12:19:41;;;;;;;2.50;1.92;;;32.10;58.20;;;;;;4928075;29;20135;-69
2022/07/13 12:22:07;;;;;;;8.05;2.75;;;31.70;57.20;;;;;;4934760;29;20059;-70
2022/07/13 12:24:33;;;;;;;11.55;7.60;;;31.50;59.10;;;;;;4934579;29;20051;-69
2022/07/13 12:26:59;;;;;;;5.70;3.00;;;31.50;59.70;;;;;;4934476;29;20396;-68
2022/07/13 12:29:28;;;;;;;5.15;2.92;;;31.80;62.30;;;;;;4934407;29;20625;-69
2022/07/13 12:31:54;;;;;;;8.77;4.05;;;31.00;61.20;;;;;;4934352;29;20087;-68
2022/07/13 12:34:20;;;;;;;4.65;2.63;;;31.70;59.90;;;;;;4917752;29;20027;-71
2022/07/13 12:36:49;;;;;;;3.05;2.28;;;32.30;59.40;;;;;;4934218;29;20042;-69
2022/07/13 12:39:15;;;;;;;2.78;1.95;;;32.10;59.30;;;;;;4934876;29;20067;-69
2022/07/13 12:41:41;;;;;;;2.95;2.20;;;32.30;59.90;;;;;;4934644;29;20060;-69
2022/07/13 12:44:07;;;;;;;9.57;2.65;;;32.00;58.70;;;;;;4917698;29;20024;-67
2022/07/13 12:46:52;;;;;;;11.52;2.60;;;32.20;59.30;;;;;;4934258;29;20039;-69
2022/07/13 12:49:18;;;;;;;5.57;3.90;;;33.90;58.40;;;;;;4934548;29;20099;-68
2022/07/13 12:51:44;;;;;;;4.22;2.70;;;33.60;55.80;;;;;;4917524;29;20110;-69
2022/07/13 12:54:10;;;;;;;5.65;2.35;;;32.00;59.50;;;;;;4934650;29;20403;-68
2022/07/13 12:56:46;;;;;;;10.23;2.65;;;32.20;58.20;;;;;;4934335;29;20047;-68
2022/07/13 12:59:11;;;;;;;8.95;2.90;;;32.30;58.90;;;;;;4934665;29;20083;-68
2022/07/13 13:01:37;;;;;;;2.53;2.33;;;32.90;59.30;;;;;;4917041;29;20039;-68
2022/07/13 13:04:05;;;;;;;5.18;2.58;;;32.10;60.10;;;;;;4930567;29;20584;-68
2022/07/13 13:07:11;;;;;;;5.47;2.35;;;31.80;61.70;;;;;;4930532;29;20395;-68